createdAt,value
2018-08-06T00:01:55.015Z,22.90
2018-08-06T00:04:25.042Z,23.09
2018-08-06T00:06:55.952Z,23.39
2018-08-06T00:09:26.497Z,23.42
2018-08-06T00:11:56.851Z,23.15
2018-08-06T00:14:27.197Z,22.90
2018-08-06T00:16:57.156Z,22.56
2018-08-06T00:19:27.178Z,22.21
2018-08-06T00:21:57.217Z,21.93
2018-08-06T00:24:27.121Z,21.86
2018-08-06T00:26:57.296Z,21.87
2018-08-06T00:29:27.842Z,21.75
2018-08-06T00:31:59.268Z,21.67
2018-08-06T00:34:29.341Z,21.67
2018-08-06T00:37:07.508Z,21.95
2018-08-06T00:39:38.105Z,22.65
2018-08-06T00:42:08.219Z,22.94
2018-08-06T00:44:38.308Z,23.06
2018-08-06T00:47:08.643Z,23.08
2018-08-06T00:49:38.977Z,23.00
2018-08-06T00:52:08.996Z,22.95
2018-08-06T00:54:39.307Z,22.77
2018-08-06T00:57:09.852Z,22.56
2018-08-06T00:59:39.855Z,22.59
2018-08-06T01:02:12.551Z,22.56
2018-08-06T01:04:42.869Z,22.41
2018-08-06T01:07:14.680Z,22.28
2018-08-06T01:09:45.096Z,22.19
2018-08-06T01:12:15.214Z,22.07
2018-08-06T01:14:45.610Z,21.90
2018-08-06T01:17:15.610Z,21.64
2018-08-06T01:19:45.733Z,21.40
2018-08-06T01:22:15.798Z,21.17
2018-08-06T01:24:45.815Z,20.98
2018-08-06T01:27:15.847Z,20.89
2018-08-06T01:29:54.251Z,21.05
2018-08-06T01:32:25.793Z,21.13
2018-08-06T01:34:55.836Z,21.20
2018-08-06T01:37:25.936Z,21.24
2018-08-06T01:39:56.721Z,21.23
2018-08-06T01:42:27.906Z,21.12
2018-08-06T01:48:17.316Z,21.20
2018-08-06T01:50:48.875Z,21.14
2018-08-06T01:53:20.749Z,21.08
2018-08-06T01:56:43.858Z,20.96
2018-08-06T01:59:14.418Z,20.84
2018-08-06T02:01:44.521Z,20.97
2018-08-06T02:04:14.538Z,21.35
2018-08-06T02:06:45.905Z,21.68
2018-08-06T02:09:16.143Z,21.91
2018-08-06T02:11:46.049Z,22.11
2018-08-06T02:14:16.069Z,22.05
2018-08-06T02:16:46.991Z,21.89
2018-08-06T02:19:17.107Z,21.87
2018-08-06T02:22:20.328Z,21.84
2018-08-06T02:24:50.494Z,21.60
2018-08-06T02:27:20.441Z,21.49
2018-08-06T02:29:56.159Z,21.41
2018-08-06T02:32:26.615Z,21.31
2018-08-06T02:34:56.793Z,21.28
2018-08-06T02:37:34.158Z,21.21
2018-08-06T02:40:06.029Z,21.08
2018-08-06T02:42:36.998Z,20.85
2018-08-06T02:45:08.487Z,20.71
2018-08-06T02:47:38.993Z,20.66
2018-08-06T02:50:10.708Z,20.60
2018-08-06T02:52:41.853Z,20.57
2018-08-06T02:55:21.471Z,20.58
2018-08-06T02:57:53.766Z,20.62
2018-08-06T03:00:24.373Z,20.62
2018-08-06T03:02:54.664Z,20.71
2018-08-06T03:05:28.079Z,20.68
2018-08-06T03:08:00.349Z,20.74
2018-08-06T03:10:30.691Z,20.68
2018-08-06T03:13:01.596Z,20.55
2018-08-06T03:15:42.370Z,20.49
2018-08-06T03:18:12.703Z,20.42
2018-08-06T03:20:42.791Z,20.47
2018-08-06T03:23:13.500Z,20.29
2018-08-06T03:25:51.354Z,20.17
2018-08-06T03:28:21.515Z,20.15
2018-08-06T03:30:51.654Z,20.11
2018-08-06T03:33:21.604Z,20.18
2018-08-06T03:35:51.927Z,20.23
2018-08-06T03:38:24.042Z,20.18
2018-08-06T03:40:57.099Z,20.17
2018-08-06T03:43:26.989Z,20.15
2018-08-06T03:45:56.932Z,20.15
2018-08-06T03:48:26.944Z,20.24
2018-08-06T03:50:56.963Z,20.22
2018-08-06T03:53:26.952Z,20.16
2018-08-06T03:56:02.596Z,20.12
2018-08-06T03:58:32.600Z,20.16
2018-08-06T04:01:02.568Z,20.20
2018-08-06T04:03:39.755Z,20.15
2018-08-06T04:06:10.123Z,20.03
2018-08-06T04:08:39.949Z,20.05
2018-08-06T04:11:10.129Z,20.05
2018-08-06T04:13:40.089Z,20.14
2018-08-06T04:16:10.487Z,20.31
2018-08-06T04:18:40.412Z,20.22
2018-08-06T04:21:11.273Z,20.40
2018-08-06T04:23:41.136Z,20.62
2018-08-06T04:26:11.293Z,20.69
2018-08-06T04:28:41.143Z,20.85
2018-08-06T04:31:11.352Z,21.13
2018-08-06T04:33:41.312Z,21.24
2018-08-06T04:36:12.347Z,21.33
2018-08-06T04:38:42.244Z,21.24
2018-08-06T04:41:12.764Z,21.11
2018-08-06T04:43:43.500Z,21.09
2018-08-06T04:46:14.200Z,21.27
2018-08-06T04:48:44.167Z,21.61
2018-08-06T04:51:14.232Z,21.93
2018-08-06T04:53:44.117Z,22.31
2018-08-06T04:56:15.008Z,22.40
2018-08-06T04:58:45.012Z,22.54
2018-08-06T05:01:15.038Z,22.78
2018-08-06T05:03:45.082Z,23.03
2018-08-06T05:06:15.084Z,23.23
2018-08-06T05:08:45.681Z,23.51
2018-08-06T05:11:15.500Z,23.84
2018-08-06T05:13:45.500Z,24.05
2018-08-06T05:16:15.593Z,24.25
2018-08-06T05:18:45.629Z,24.54
2018-08-06T05:21:15.611Z,24.87
2018-08-06T05:23:55.317Z,24.98
2018-08-06T05:26:26.281Z,24.88
2018-08-06T05:28:56.474Z,24.90
2018-08-06T05:31:27.746Z,24.95
2018-08-06T05:33:58.813Z,25.19
2018-08-06T05:36:28.936Z,25.65
2018-08-06T05:38:59.119Z,26.15
2018-08-06T05:41:32.780Z,26.62
2018-08-06T05:44:02.802Z,26.87
2018-08-06T05:46:33.434Z,27.03
2018-08-06T05:49:03.758Z,27.09
2018-08-06T05:51:34.202Z,27.24
2018-08-06T05:54:04.276Z,27.18
2018-08-06T05:56:34.621Z,26.97
2018-08-06T05:59:04.982Z,27.07
2018-08-06T06:01:35.863Z,27.07
2018-08-06T06:04:06.180Z,27.25
2018-08-06T06:06:36.986Z,27.48
2018-08-06T06:09:09.923Z,27.55
2018-08-06T06:11:40.672Z,27.40
2018-08-06T06:14:11.926Z,27.43
2018-08-06T06:16:42.075Z,27.47
2018-08-06T06:19:12.585Z,27.36
2018-08-06T06:21:42.874Z,27.71
2018-08-06T06:24:14.759Z,27.83
2018-08-06T06:26:45.170Z,27.94
2018-08-06T06:29:15.191Z,28.19
2018-08-06T06:31:45.245Z,28.17
2018-08-06T06:34:15.370Z,27.82
2018-08-06T06:36:45.443Z,28.08
2018-08-06T06:39:15.658Z,28.49
2018-08-06T06:41:45.713Z,28.53
2018-08-06T06:44:15.880Z,28.73
2018-08-06T06:46:45.810Z,28.56
2018-08-06T06:49:15.797Z,28.75
2018-08-06T06:51:46.119Z,29.24
2018-08-06T06:54:16.650Z,29.49
2018-08-06T06:56:46.728Z,29.56
2018-08-06T06:59:16.933Z,29.29
2018-08-06T07:01:47.797Z,29.68
2018-08-06T07:04:17.851Z,29.84
2018-08-06T07:06:47.848Z,30.23
2018-08-06T07:09:17.879Z,30.63
2018-08-06T07:11:47.986Z,30.70
2018-08-06T07:14:18.009Z,30.52
2018-08-06T07:16:48.692Z,30.82
2018-08-06T07:19:18.771Z,30.92
2018-08-06T07:21:49.031Z,30.89
2018-08-06T07:24:19.054Z,30.94
2018-08-06T07:26:49.135Z,30.86
2018-08-06T07:29:19.240Z,30.97
2018-08-06T07:31:49.313Z,31.29
2018-08-06T07:34:19.446Z,31.76
2018-08-06T07:36:49.691Z,31.93
2018-08-06T07:39:19.721Z,31.90
2018-08-06T07:41:50.053Z,32.25
2018-08-06T07:51:54.085Z,34.28
2018-08-06T07:54:24.205Z,34.70
2018-08-06T07:56:54.369Z,35.17
2018-08-06T07:59:24.753Z,35.23
2018-08-06T08:01:55.068Z,35.37
2018-08-06T08:07:35.048Z,35.87
2018-08-06T08:10:08.725Z,36.30
2018-08-06T08:12:39.123Z,36.35
2018-08-06T08:15:15.542Z,36.28
2018-08-06T08:17:47.976Z,36.03
2018-08-06T08:20:22.493Z,35.95
2018-08-06T08:22:52.414Z,36.30
2018-08-06T08:25:23.181Z,36.36
2018-08-06T08:27:53.173Z,36.12
2018-08-06T08:30:23.572Z,35.54
2018-08-06T08:32:53.641Z,35.01
2018-08-06T08:35:30.125Z,34.26
2018-08-06T08:38:00.249Z,34.18
2018-08-06T08:40:30.505Z,34.22
2018-08-06T08:43:00.444Z,33.66
2018-08-06T08:45:30.603Z,33.75
2018-08-06T08:48:00.531Z,34.17
2018-08-06T08:50:30.447Z,34.20
2018-08-06T08:53:00.460Z,34.39
2018-08-06T08:55:30.521Z,34.65
2018-08-06T08:58:00.656Z,34.27
2018-08-06T09:00:30.606Z,33.74
2018-08-06T09:03:00.581Z,33.09
2018-08-06T09:05:30.640Z,33.52
2018-08-06T09:08:00.601Z,33.80
2018-08-06T09:10:30.713Z,33.26
2018-08-06T09:13:00.799Z,34.25
2018-08-06T09:15:30.881Z,35.00
2018-08-06T09:18:00.874Z,35.12
2018-08-06T09:20:30.985Z,34.91
2018-08-06T09:23:01.089Z,34.88
2018-08-06T09:25:31.134Z,34.97
2018-08-06T09:28:01.114Z,35.09
2018-08-06T09:30:31.208Z,35.21
2018-08-06T09:33:01.195Z,35.83
2018-08-06T09:35:31.145Z,35.45
2018-08-06T09:38:01.157Z,34.97
2018-08-06T09:40:31.459Z,34.88
2018-08-06T09:43:01.558Z,35.22
2018-08-06T09:45:31.568Z,35.20
2018-08-06T09:48:01.567Z,35.08
2018-08-06T09:50:31.721Z,34.50
2018-08-06T10:00:29.586Z,35.41
2018-08-06T10:03:00.830Z,34.20
2018-08-06T10:05:31.072Z,34.54
2018-08-06T10:08:01.021Z,35.22
2018-08-06T10:10:31.018Z,35.11
2018-08-06T10:13:01.064Z,34.73
2018-08-06T10:15:31.061Z,35.91
2018-08-06T10:18:01.188Z,36.30
2018-08-06T10:20:31.113Z,36.58
2018-08-06T10:23:01.184Z,36.76
2018-08-06T10:25:31.132Z,35.44
2018-08-06T10:28:01.216Z,33.91
2018-08-06T10:30:31.821Z,35.49
2018-08-06T10:33:02.070Z,34.16
2018-08-06T10:35:32.816Z,34.12
2018-08-06T10:38:02.964Z,34.43
2018-08-06T10:40:33.061Z,35.96
2018-08-06T10:43:03.063Z,36.14
2018-08-06T10:45:33.048Z,37.09
2018-08-06T10:48:03.004Z,36.95
2018-08-06T10:50:33.054Z,37.37
2018-08-06T10:53:03.244Z,36.69
2018-08-06T10:55:33.295Z,37.32
2018-08-06T10:58:03.363Z,36.82
2018-08-06T11:00:33.520Z,36.92
2018-08-06T11:03:03.697Z,37.44
2018-08-06T11:05:36.819Z,37.55
2018-08-06T11:08:06.892Z,38.60
2018-08-06T11:10:36.944Z,38.68
2018-08-06T11:13:07.486Z,38.22
2018-08-06T11:15:39.821Z,37.76
2018-08-06T11:18:09.905Z,37.38
2018-08-06T11:20:40.256Z,36.96
2018-08-06T11:26:37.966Z,39.10
2018-08-06T11:29:08.143Z,39.83
2018-08-06T11:31:38.123Z,40.33
2018-08-06T11:34:08.158Z,39.26
2018-08-06T11:36:38.192Z,39.86
2018-08-06T11:39:10.127Z,39.77
2018-08-06T11:41:40.187Z,39.30
2018-08-06T11:44:11.514Z,38.14
2018-08-06T11:46:41.540Z,36.79
2018-08-06T11:49:11.823Z,36.92
2018-08-06T11:51:41.835Z,37.27
2018-08-06T11:54:12.074Z,37.69
2018-08-06T11:56:42.133Z,37.60
2018-08-06T11:59:12.701Z,37.73
2018-08-06T12:01:42.704Z,37.40
2018-08-06T12:04:13.020Z,37.00
2018-08-06T12:06:43.070Z,36.46
2018-08-06T12:09:13.549Z,35.88
2018-08-06T12:11:44.267Z,35.44
2018-08-06T12:14:14.192Z,35.35
2018-08-06T12:16:44.220Z,35.77
2018-08-06T12:19:15.811Z,35.61
2018-08-06T12:21:45.809Z,35.79
2018-08-06T12:24:15.770Z,35.91
2018-08-06T12:26:45.963Z,36.22
2018-08-06T12:29:16.177Z,36.88
2018-08-06T12:34:50.963Z,36.51
2018-08-06T12:37:21.964Z,36.03
2018-08-06T12:39:52.566Z,35.23
2018-08-06T12:42:24.605Z,36.21
2018-08-06T12:44:54.794Z,35.93
2018-08-06T12:47:25.308Z,36.23
2018-08-06T12:49:55.174Z,36.06
2018-08-06T12:52:25.134Z,35.83
2018-08-06T12:54:55.353Z,36.18
2018-08-06T12:57:25.542Z,35.71
2018-08-06T12:59:55.629Z,35.56
2018-08-06T13:02:25.938Z,35.21
2018-08-06T13:04:57.201Z,35.54
2018-08-06T13:07:31.188Z,35.68
2018-08-06T13:10:01.691Z,35.89
2018-08-06T13:12:32.457Z,36.37
2018-08-06T13:15:05.582Z,35.88
2018-08-06T13:17:36.841Z,36.55
2018-08-06T13:20:08.550Z,36.95
2018-08-06T13:22:44.657Z,37.18
2018-08-06T13:25:15.925Z,37.25
2018-08-06T13:27:49.102Z,37.61
2018-08-06T13:30:24.410Z,37.53
2018-08-06T13:32:54.923Z,37.15
2018-08-06T13:35:25.597Z,37.17
2018-08-06T13:37:56.640Z,36.50
2018-08-06T13:43:53.813Z,36.25
2018-08-06T13:46:25.001Z,35.13
2018-08-06T13:48:58.356Z,34.61
2018-08-06T13:51:28.666Z,34.71
2018-08-06T13:54:00.158Z,34.37
2018-08-06T13:56:30.416Z,34.63
2018-08-06T13:59:08.214Z,35.12
2018-08-06T14:02:19.904Z,35.31
2018-08-06T14:04:50.070Z,35.53
2018-08-06T14:07:20.009Z,35.67
2018-08-06T14:09:50.256Z,35.66
2018-08-06T14:12:20.187Z,35.35
2018-08-06T14:14:50.351Z,34.39
2018-08-06T14:17:20.402Z,34.29
2018-08-06T14:19:50.465Z,34.29
2018-08-06T14:22:20.538Z,34.89
2018-08-06T14:24:50.769Z,35.32
2018-08-06T14:27:20.694Z,35.30
2018-08-06T14:29:51.635Z,35.19
2018-08-06T14:32:22.507Z,34.20
2018-08-06T14:34:52.625Z,34.59
2018-08-06T14:37:23.257Z,34.77
2018-08-06T14:39:53.994Z,34.50
2018-08-06T14:42:24.208Z,34.21
2018-08-06T14:44:54.228Z,33.98
2018-08-06T14:47:24.179Z,33.71
2018-08-06T14:49:54.313Z,33.49
2018-08-06T14:52:24.146Z,33.37
2018-08-06T14:54:54.157Z,33.25
2018-08-06T14:57:24.620Z,33.12
2018-08-06T14:59:54.774Z,33.03
2018-08-06T15:02:24.821Z,32.98
2018-08-06T15:04:54.683Z,32.92
2018-08-06T15:07:24.571Z,32.87
2018-08-06T15:09:54.559Z,32.90
2018-08-06T15:12:24.508Z,32.94
2018-08-06T15:14:54.415Z,32.91
2018-08-06T15:17:24.567Z,32.92
2018-08-06T15:19:54.576Z,32.93
2018-08-06T15:22:24.652Z,32.94
2018-08-06T15:36:53.087Z,33.21
2018-08-06T15:39:23.003Z,33.05
2018-08-06T15:41:52.962Z,32.97
2018-08-06T15:44:22.960Z,32.88
2018-08-06T15:46:53.960Z,32.87
2018-08-06T15:49:23.897Z,32.81
2018-08-06T15:51:53.893Z,32.83
2018-08-06T15:54:23.783Z,32.81
2018-08-06T15:56:53.728Z,32.80
2018-08-06T15:59:23.675Z,32.82
2018-08-06T16:01:53.668Z,32.90
2018-08-06T16:04:23.579Z,32.96
2018-08-06T16:06:53.615Z,32.91
2018-08-06T16:09:23.559Z,32.82
2018-08-06T16:11:53.524Z,32.78
2018-08-06T16:14:23.454Z,32.84
2018-08-06T16:16:53.387Z,33.09
2018-08-06T16:19:23.338Z,33.03
2018-08-06T16:21:53.275Z,32.89
2018-08-06T16:24:23.581Z,32.77
2018-08-06T16:26:53.546Z,32.74
2018-08-06T16:29:23.518Z,32.83
2018-08-06T16:31:54.113Z,32.85
2018-08-06T16:34:24.279Z,32.83
2018-08-06T16:36:54.310Z,32.77
2018-08-06T16:39:24.276Z,32.64
2018-08-06T16:42:03.640Z,32.70
2018-08-06T16:44:33.576Z,33.04
2018-08-06T16:47:03.659Z,32.87
2018-08-06T16:49:33.644Z,32.51
2018-08-06T16:52:05.934Z,32.08
2018-08-06T16:54:45.961Z,31.78
2018-08-06T16:57:15.932Z,31.54
2018-08-06T16:59:46.051Z,31.46
2018-08-06T17:02:17.152Z,31.36
2018-08-06T17:04:47.243Z,31.28
2018-08-06T17:07:17.335Z,31.00
2018-08-06T17:09:47.297Z,30.98
2018-08-06T17:12:17.433Z,30.83
2018-08-06T17:14:47.438Z,30.75
2018-08-06T17:20:52.541Z,30.55
2018-08-06T17:27:30.578Z,30.28
2018-08-06T17:33:55.391Z,30.01
2018-08-06T17:37:08.507Z,29.85
2018-08-06T17:39:39.991Z,29.71
2018-08-06T17:42:11.849Z,29.56
2018-08-06T17:44:41.991Z,29.53
2018-08-06T17:47:40.433Z,29.53
2018-08-06T17:50:24.187Z,29.42
2018-08-06T17:52:56.127Z,29.30
2018-08-06T17:55:26.119Z,29.22
2018-08-06T17:57:56.320Z,29.19
2018-08-06T18:00:30.190Z,29.15
2018-08-06T18:03:00.578Z,29.14
2018-08-06T18:05:32.612Z,29.06
2018-08-06T18:08:19.427Z,28.96
2018-08-06T18:10:52.609Z,28.86
2018-08-06T18:13:22.617Z,28.82
2018-08-06T18:15:52.604Z,28.74
2018-08-06T18:18:22.743Z,28.68
2018-08-06T18:20:52.658Z,28.63
2018-08-06T18:23:22.684Z,28.56
2018-08-06T18:25:53.713Z,28.53
2018-08-06T18:28:23.799Z,28.44
2018-08-06T18:30:53.828Z,28.40
2018-08-06T18:33:24.088Z,28.35
2018-08-06T18:35:54.462Z,28.28
2018-08-06T18:38:25.385Z,28.27
2018-08-06T18:40:55.512Z,28.26
2018-08-06T18:43:25.571Z,28.22
2018-08-06T18:45:55.427Z,28.20
2018-08-06T18:48:25.328Z,28.14
2018-08-06T18:50:55.316Z,28.09
2018-08-06T18:53:25.439Z,28.05
2018-08-06T18:55:55.564Z,28.01
2018-08-06T18:58:25.654Z,27.93
2018-08-06T19:00:55.679Z,27.96
2018-08-06T19:03:28.186Z,28.03
2018-08-06T19:05:58.295Z,27.94
2018-08-06T19:08:31.618Z,27.81
2018-08-06T19:11:01.544Z,27.73
2018-08-06T19:13:36.492Z,27.68
2018-08-06T19:16:06.780Z,27.61
2018-08-06T19:18:42.614Z,27.66
2018-08-06T19:21:13.086Z,27.64
2018-08-06T19:23:49.900Z,27.60
2018-08-06T19:26:20.026Z,27.55
2018-08-06T19:28:50.274Z,27.38
2018-08-06T19:40:35.595Z,27.51
2018-08-06T19:43:13.211Z,27.44
2018-08-06T19:45:44.826Z,27.34
2018-08-06T19:48:15.603Z,27.28
2018-08-06T19:50:45.720Z,27.30
2018-08-06T19:53:15.790Z,27.35
2018-08-06T19:55:51.008Z,27.32
2018-08-06T19:58:21.117Z,27.35
2018-08-06T20:00:51.180Z,27.30
2018-08-06T20:03:21.175Z,27.24
2018-08-06T20:05:51.185Z,27.23
2018-08-06T20:08:21.251Z,27.12
2018-08-06T20:10:52.403Z,27.11
2018-08-06T20:13:30.749Z,27.05
2018-08-06T20:16:01.629Z,27.01
2018-08-06T20:18:32.110Z,26.95
2018-08-06T20:21:02.172Z,26.90
2018-08-06T20:23:32.562Z,26.88
2018-08-06T20:26:02.620Z,26.90
2018-08-06T20:28:32.691Z,26.93
2018-08-06T20:31:02.953Z,26.93
2018-08-06T20:33:33.289Z,26.86
2018-08-06T20:36:03.308Z,26.88
2018-08-06T20:38:33.343Z,26.82
2018-08-06T20:41:03.518Z,26.74
2018-08-06T20:43:33.674Z,26.71
2018-08-06T20:46:03.652Z,26.69
2018-08-06T20:48:34.111Z,26.70
2018-08-06T20:51:04.343Z,26.73
2018-08-06T20:53:34.410Z,26.65
2018-08-06T20:56:04.482Z,26.68
2018-08-06T20:58:34.456Z,26.59
2018-08-06T21:01:04.487Z,26.57
2018-08-06T21:03:34.530Z,26.58
2018-08-06T21:06:04.543Z,26.47
2018-08-06T21:08:34.568Z,26.42
2018-08-06T21:11:04.568Z,26.43
2018-08-06T21:13:34.655Z,26.40
2018-08-06T21:16:04.711Z,26.38
2018-08-06T21:18:34.686Z,26.30
2018-08-06T21:21:04.665Z,26.32
2018-08-06T21:23:34.704Z,26.19
2018-08-06T21:26:04.770Z,26.16
2018-08-06T21:28:34.774Z,26.15
2018-08-06T21:31:06.492Z,26.07
2018-08-06T21:33:37.822Z,25.82
2018-08-06T21:37:14.104Z,25.86
2018-08-06T21:39:44.282Z,25.80
2018-08-06T21:42:14.790Z,25.80
2018-08-06T21:44:45.023Z,25.83
2018-08-06T21:47:20.599Z,25.84
2018-08-06T21:49:50.955Z,25.82
2018-08-06T21:52:20.930Z,25.72
2018-08-06T21:54:51.274Z,25.65
2018-08-06T21:57:22.850Z,25.58
2018-08-06T21:59:57.094Z,25.53
2018-08-06T22:02:28.587Z,25.50
2018-08-06T22:05:40.552Z,25.34
2018-08-06T22:08:11.867Z,25.29
2018-08-06T22:10:42.157Z,25.18
2018-08-06T22:13:13.583Z,25.14
2018-08-06T22:15:43.786Z,25.09
2018-08-06T22:18:17.567Z,25.08
2018-08-06T22:20:56.788Z,25.06
2018-08-06T22:23:32.684Z,25.01
2018-08-06T22:26:03.403Z,24.93
2018-08-06T22:28:33.482Z,24.89
2018-08-06T22:31:06.440Z,24.84
2018-08-06T22:33:36.489Z,24.78
2018-08-06T22:36:20.675Z,24.68
2018-08-06T22:38:51.765Z,24.60
2018-08-06T22:41:22.725Z,24.56
2018-08-06T22:44:27.564Z,24.62
2018-08-06T22:50:19.008Z,24.72
2018-08-06T22:52:52.295Z,24.72
2018-08-06T22:55:23.355Z,24.72
2018-08-06T22:57:53.753Z,24.74
2018-08-06T23:00:23.817Z,24.75
2018-08-06T23:02:53.974Z,24.78
2018-08-06T23:05:24.139Z,24.81
2018-08-06T23:07:54.449Z,24.72
2018-08-06T23:10:24.444Z,24.62
2018-08-06T23:12:54.715Z,24.54
2018-08-06T23:15:25.017Z,24.50
2018-08-06T23:17:55.348Z,24.49
2018-08-06T23:35:26.897Z,24.00
2018-08-06T23:37:56.869Z,23.97
2018-08-06T23:43:01.263Z,23.92
2018-08-06T23:45:31.399Z,23.84
2018-08-06T23:48:02.120Z,23.79
2018-08-06T23:50:34.097Z,23.74
2018-08-06T23:53:04.340Z,23.91
2018-08-06T23:55:34.824Z,23.99
2018-08-06T23:58:04.862Z,24.04
